sensor_id;sensor_type;location;lat;lon;timestamp;temperature;humidity
5868;DHT22;2960;49.142;7.768;2022-09-29T00:01:15;10.20;64.50
5868;DHT22;2960;49.142;7.768;2022-09-29T00:03:43;10.20;64.60
5868;DHT22;2960;49.142;7.768;2022-09-29T00:06:13;10.20;64.50
5868;DHT22;2960;49.142;7.768;2022-09-29T00:08:42;10.10;64.40
5868;DHT22;2960;49.142;7.768;2022-09-29T00:11:12;10.10;64.50
5868;DHT22;2960;49.142;7.768;2022-09-29T00:13:40;10.00;65.30
5868;DHT22;2960;49.142;7.768;2022-09-29T00:16:08;9.90;65.80
5868;DHT22;2960;49.142;7.768;2022-09-29T00:18:35;9.90;65.90
5868;DHT22;2960;49.142;7.768;2022-09-29T00:21:05;9.90;66.00
5868;DHT22;2960;49.142;7.768;2022-09-29T00:23:34;9.80;65.90
5868;DHT22;2960;49.142;7.768;2022-09-29T00:26:04;9.80;66.00
5868;DHT22;2960;49.142;7.768;2022-09-29T00:28:33;9.80;66.00
5868;DHT22;2960;49.142;7.768;2022-09-29T00:31:01;9.70;66.00
5868;DHT22;2960;49.142;7.768;2022-09-29T00:33:30;9.70;66.20
5868;DHT22;2960;49.142;7.768;2022-09-29T00:36:00;9.70;66.20
5868;DHT22;2960;49.142;7.768;2022-09-29T00:38:29;9.70;66.30
5868;DHT22;2960;49.142;7.768;2022-09-29T00:40:57;9.70;66.30
5868;DHT22;2960;49.142;7.768;2022-09-29T00:46:16;9.70;66.40
5868;DHT22;2960;49.142;7.768;2022-09-29T00:48:46;9.60;66.30
5868;DHT22;2960;49.142;7.768;2022-09-29T00:51:14;9.60;66.30
5868;DHT22;2960;49.142;7.768;2022-09-29T00:53:43;9.50;66.20
5868;DHT22;2960;49.142;7.768;2022-09-29T00:56:13;9.50;66.30
5868;DHT22;2960;49.142;7.768;2022-09-29T00:58:43;9.40;66.40
5868;DHT22;2960;49.142;7.768;2022-09-29T01:01:14;9.30;66.60
5868;DHT22;2960;49.142;7.768;2022-09-29T01:03:45;9.30;66.70
5868;DHT22;2960;49.142;7.768;2022-09-29T01:06:16;9.30;66.90
5868;DHT22;2960;49.142;7.768;2022-09-29T01:08:51;9.30;66.90
5868;DHT22;2960;49.142;7.768;2022-09-29T01:11:23;9.30;66.90
5868;DHT22;2960;49.142;7.768;2022-09-29T01:13:50;9.20;66.90
5868;DHT22;2960;49.142;7.768;2022-09-29T01:16:18;9.20;66.90
5868;DHT22;2960;49.142;7.768;2022-09-29T01:18:45;9.20;66.90
5868;DHT22;2960;49.142;7.768;2022-09-29T01:21:19;9.10;66.80
5868;DHT22;2960;49.142;7.768;2022-09-29T01:24:23;9.10;67.00
5868;DHT22;2960;49.142;7.768;2022-09-29T01:27:11;9.10;66.90
5868;DHT22;2960;49.142;7.768;2022-09-29T01:36:04;8.90;67.10
5868;DHT22;2960;49.142;7.768;2022-09-29T01:38:47;8.90;67.30
5868;DHT22;2960;49.142;7.768;2022-09-29T01:41:25;8.80;67.20
5868;DHT22;2960;49.142;7.768;2022-09-29T01:44:00;8.80;67.20
5868;DHT22;2960;49.142;7.768;2022-09-29T01:46:33;8.80;67.30
5868;DHT22;2960;49.142;7.768;2022-09-29T01:49:04;8.80;67.30
5868;DHT22;2960;49.142;7.768;2022-09-29T01:51:37;8.80;67.30
5868;DHT22;2960;49.142;7.768;2022-09-29T01:54:11;8.80;67.30
5868;DHT22;2960;49.142;7.768;2022-09-29T01:56:44;8.80;67.30
5868;DHT22;2960;49.142;7.768;2022-09-29T01:59:18;8.80;67.30
5868;DHT22;2960;49.142;7.768;2022-09-29T02:01:50;8.80;67.30
5868;DHT22;2960;49.142;7.768;2022-09-29T02:04:24;8.80;67.40
5868;DHT22;2960;49.142;7.768;2022-09-29T02:06:57;8.80;67.40
5868;DHT22;2960;49.142;7.768;2022-09-29T02:09:28;8.80;67.40
5868;DHT22;2960;49.142;7.768;2022-09-29T02:12:00;8.80;68.20
5868;DHT22;2960;49.142;7.768;2022-09-29T02:14:31;8.80;67.50
5868;DHT22;2960;49.142;7.768;2022-09-29T02:17:05;8.80;67.50
5868;DHT22;2960;49.142;7.768;2022-09-29T02:19:39;8.70;67.50
5868;DHT22;2960;49.142;7.768;2022-09-29T02:22:09;8.70;67.50
5868;DHT22;2960;49.142;7.768;2022-09-29T02:24:36;8.70;67.50
5868;DHT22;2960;49.142;7.768;2022-09-29T02:27:04;8.70;67.50
5868;DHT22;2960;49.142;7.768;2022-09-29T02:29:32;8.70;67.50
5868;DHT22;2960;49.142;7.768;2022-09-29T02:32:02;8.70;67.60
5868;DHT22;2960;49.142;7.768;2022-09-29T02:34:31;8.70;67.50
5868;DHT22;2960;49.142;7.768;2022-09-29T02:37:07;8.70;67.50
5868;DHT22;2960;49.142;7.768;2022-09-29T02:39:43;8.70;67.60
5868;DHT22;2960;49.142;7.768;2022-09-29T02:42:20;8.70;67.60
5868;DHT22;2960;49.142;7.768;2022-09-29T02:45:06;8.70;67.60
5868;DHT22;2960;49.142;7.768;2022-09-29T02:47:54;8.70;67.50
5868;DHT22;2960;49.142;7.768;2022-09-29T02:50:47;8.70;67.60
5868;DHT22;2960;49.142;7.768;2022-09-29T02:53:31;8.70;67.50
5868;DHT22;2960;49.142;7.768;2022-09-29T02:56:10;8.60;67.50
5868;DHT22;2960;49.142;7.768;2022-09-29T02:58:46;8.60;67.40
5868;DHT22;2960;49.142;7.768;2022-09-29T03:01:17;8.60;67.40
5868;DHT22;2960;49.142;7.768;2022-09-29T03:03:44;8.60;67.40
5868;DHT22;2960;49.142;7.768;2022-09-29T03:06:12;8.60;67.40
5868;DHT22;2960;49.142;7.768;2022-09-29T03:08:41;8.60;67.40
5868;DHT22;2960;49.142;7.768;2022-09-29T03:11:08;8.60;67.30
5868;DHT22;2960;49.142;7.768;2022-09-29T03:13:35;8.60;67.30
5868;DHT22;2960;49.142;7.768;2022-09-29T03:16:02;8.70;67.40
5868;DHT22;2960;49.142;7.768;2022-09-29T03:18:29;8.60;67.30
5868;DHT22;2960;49.142;7.768;2022-09-29T03:20:56;8.70;67.40
5868;DHT22;2960;49.142;7.768;2022-09-29T03:23:23;8.60;67.20
5868;DHT22;2960;49.142;7.768;2022-09-29T03:25:52;8.60;67.20
5868;DHT22;2960;49.142;7.768;2022-09-29T03:28:19;8.60;67.20
5868;DHT22;2960;49.142;7.768;2022-09-29T03:30:46;8.60;67.20
5868;DHT22;2960;49.142;7.768;2022-09-29T03:33:13;8.70;67.30
5868;DHT22;2960;49.142;7.768;2022-09-29T03:35:41;8.70;67.30
5868;DHT22;2960;49.142;7.768;2022-09-29T03:38:08;8.70;67.30
5868;DHT22;2960;49.142;7.768;2022-09-29T03:40:35;8.70;67.30
5868;DHT22;2960;49.142;7.768;2022-09-29T03:43:03;8.70;67.30
5868;DHT22;2960;49.142;7.768;2022-09-29T03:45:30;8.70;67.40
5868;DHT22;2960;49.142;7.768;2022-09-29T03:47:57;8.70;67.30
5868;DHT22;2960;49.142;7.768;2022-09-29T03:50:24;8.70;67.40
5868;DHT22;2960;49.142;7.768;2022-09-29T03:52:51;8.60;67.20
5868;DHT22;2960;49.142;7.768;2022-09-29T03:55:18;8.60;67.30
5868;DHT22;2960;49.142;7.768;2022-09-29T03:57:45;8.70;67.50
5868;DHT22;2960;49.142;7.768;2022-09-29T04:00:14;8.60;67.40
5868;DHT22;2960;49.142;7.768;2022-09-29T04:02:42;8.60;67.40
5868;DHT22;2960;49.142;7.768;2022-09-29T04:05:09;8.60;67.50
5868;DHT22;2960;49.142;7.768;2022-09-29T04:07:36;8.60;67.50
5868;DHT22;2960;49.142;7.768;2022-09-29T04:10:03;8.60;67.50
5868;DHT22;2960;49.142;7.768;2022-09-29T04:12:31;8.60;67.50
5868;DHT22;2960;49.142;7.768;2022-09-29T04:14:58;8.60;67.60
5868;DHT22;2960;49.142;7.768;2022-09-29T04:17:26;8.60;67.60
5868;DHT22;2960;49.142;7.768;2022-09-29T04:19:53;8.60;67.70
5868;DHT22;2960;49.142;7.768;2022-09-29T04:22:20;8.60;67.70
5868;DHT22;2960;49.142;7.768;2022-09-29T04:24:47;8.60;67.70
5868;DHT22;2960;49.142;7.768;2022-09-29T04:27:15;8.60;67.70
5868;DHT22;2960;49.142;7.768;2022-09-29T04:29:42;8.50;67.70
5868;DHT22;2960;49.142;7.768;2022-09-29T04:32:10;8.50;67.70
5868;DHT22;2960;49.142;7.768;2022-09-29T04:34:38;8.50;67.70
5868;DHT22;2960;49.142;7.768;2022-09-29T04:37:06;8.50;67.70
5868;DHT22;2960;49.142;7.768;2022-09-29T04:39:35;8.50;67.80
5868;DHT22;2960;49.142;7.768;2022-09-29T04:42:03;8.50;67.80
5868;DHT22;2960;49.142;7.768;2022-09-29T04:44:30;8.50;67.90
5868;DHT22;2960;49.142;7.768;2022-09-29T04:46:57;8.50;67.90
5868;DHT22;2960;49.142;7.768;2022-09-29T04:49:24;8.50;68.70
5868;DHT22;2960;49.142;7.768;2022-09-29T04:51:53;8.50;67.90
5868;DHT22;2960;49.142;7.768;2022-09-29T04:54:20;8.50;68.00
5868;DHT22;2960;49.142;7.768;2022-09-29T04:56:47;8.50;68.00
5868;DHT22;2960;49.142;7.768;2022-09-29T04:59:14;8.50;68.00
5868;DHT22;2960;49.142;7.768;2022-09-29T05:01:42;8.50;68.10
5868;DHT22;2960;49.142;7.768;2022-09-29T05:04:09;8.50;68.00
5868;DHT22;2960;49.142;7.768;2022-09-29T05:06:38;8.50;67.90
5868;DHT22;2960;49.142;7.768;2022-09-29T05:09:06;8.50;68.00
5868;DHT22;2960;49.142;7.768;2022-09-29T05:11:34;8.60;68.10
5868;DHT22;2960;49.142;7.768;2022-09-29T05:14:01;8.60;68.10
5868;DHT22;2960;49.142;7.768;2022-09-29T05:16:29;8.60;68.10
5868;DHT22;2960;49.142;7.768;2022-09-29T05:18:56;8.60;68.10
5868;DHT22;2960;49.142;7.768;2022-09-29T05:21:23;8.60;68.20
5868;DHT22;2960;49.142;7.768;2022-09-29T05:23:51;8.50;68.10
5868;DHT22;2960;49.142;7.768;2022-09-29T05:26:19;8.50;68.20
5868;DHT22;2960;49.142;7.768;2022-09-29T05:28:46;8.50;68.20
5868;DHT22;2960;49.142;7.768;2022-09-29T05:31:14;8.50;68.20
5868;DHT22;2960;49.142;7.768;2022-09-29T05:33:42;8.60;68.30
5868;DHT22;2960;49.142;7.768;2022-09-29T05:36:10;8.60;68.30
5868;DHT22;2960;49.142;7.768;2022-09-29T05:38:38;8.50;68.30
5868;DHT22;2960;49.142;7.768;2022-09-29T05:41:08;8.50;68.40
5868;DHT22;2960;49.142;7.768;2022-09-29T05:43:38;8.50;68.40
5868;DHT22;2960;49.142;7.768;2022-09-29T05:46:07;8.50;68.40
5868;DHT22;2960;49.142;7.768;2022-09-29T05:48:35;8.50;68.50
5868;DHT22;2960;49.142;7.768;2022-09-29T05:51:07;8.50;68.50
5868;DHT22;2960;49.142;7.768;2022-09-29T05:53:35;8.50;68.60
5868;DHT22;2960;49.142;7.768;2022-09-29T05:56:06;8.60;68.70
5868;DHT22;2960;49.142;7.768;2022-09-29T05:58:34;8.60;68.70
5868;DHT22;2960;49.142;7.768;2022-09-29T06:01:06;8.60;68.70
5868;DHT22;2960;49.142;7.768;2022-09-29T06:03:34;8.60;68.70
5868;DHT22;2960;49.142;7.768;2022-09-29T06:06:06;8.60;69.40
5868;DHT22;2960;49.142;7.768;2022-09-29T06:08:34;8.60;68.80
5868;DHT22;2960;49.142;7.768;2022-09-29T06:11:03;8.60;68.80
5868;DHT22;2960;49.142;7.768;2022-09-29T06:13:31;8.60;68.80
5868;DHT22;2960;49.142;7.768;2022-09-29T06:15:59;8.60;68.80
5868;DHT22;2960;49.142;7.768;2022-09-29T06:18:28;8.60;68.80
5868;DHT22;2960;49.142;7.768;2022-09-29T06:21:00;8.70;69.00
5868;DHT22;2960;49.142;7.768;2022-09-29T06:23:28;8.70;69.00
5868;DHT22;2960;49.142;7.768;2022-09-29T06:25:56;8.70;69.00
5868;DHT22;2960;49.142;7.768;2022-09-29T06:28:23;8.70;69.10
5868;DHT22;2960;49.142;7.768;2022-09-29T06:30:50;8.70;69.10
5868;DHT22;2960;49.142;7.768;2022-09-29T06:33:17;8.70;69.10
5868;DHT22;2960;49.142;7.768;2022-09-29T06:35:47;8.70;69.10
5868;DHT22;2960;49.142;7.768;2022-09-29T06:38:32;8.70;69.10
5868;DHT22;2960;49.142;7.768;2022-09-29T06:41:00;8.70;69.30
5868;DHT22;2960;49.142;7.768;2022-09-29T06:43:27;8.70;69.30
5868;DHT22;2960;49.142;7.768;2022-09-29T06:45:54;8.70;69.30
5868;DHT22;2960;49.142;7.768;2022-09-29T06:48:21;8.80;70.20
5868;DHT22;2960;49.142;7.768;2022-09-29T06:50:49;8.80;69.40
5868;DHT22;2960;49.142;7.768;2022-09-29T06:53:16;8.80;69.30
5868;DHT22;2960;49.142;7.768;2022-09-29T06:55:50;8.80;69.40
5868;DHT22;2960;49.142;7.768;2022-09-29T06:58:17;8.80;69.40
5868;DHT22;2960;49.142;7.768;2022-09-29T07:00:45;8.80;69.30
5868;DHT22;2960;49.142;7.768;2022-09-29T07:03:12;8.80;69.40
5868;DHT22;2960;49.142;7.768;2022-09-29T07:05:39;8.80;69.40
5868;DHT22;2960;49.142;7.768;2022-09-29T07:08:07;8.80;69.50
5868;DHT22;2960;49.142;7.768;2022-09-29T07:10:35;8.90;69.70
5868;DHT22;2960;49.142;7.768;2022-09-29T07:13:02;8.90;69.70
5868;DHT22;2960;49.142;7.768;2022-09-29T07:15:30;8.90;69.70
5868;DHT22;2960;49.142;7.768;2022-09-29T07:17:58;8.90;69.70
5868;DHT22;2960;49.142;7.768;2022-09-29T07:20:25;8.90;69.80
5868;DHT22;2960;49.142;7.768;2022-09-29T07:22:53;8.90;69.90
5868;DHT22;2960;49.142;7.768;2022-09-29T07:25:21;8.90;69.90
5868;DHT22;2960;49.142;7.768;2022-09-29T07:27:49;8.90;69.90
5868;DHT22;2960;49.142;7.768;2022-09-29T07:30:17;9.00;70.00
5868;DHT22;2960;49.142;7.768;2022-09-29T07:32:44;9.00;70.00
5868;DHT22;2960;49.142;7.768;2022-09-29T07:35:11;9.10;70.10
5868;DHT22;2960;49.142;7.768;2022-09-29T07:37:38;9.10;70.00
5868;DHT22;2960;49.142;7.768;2022-09-29T07:40:06;9.10;70.00
5868;DHT22;2960;49.142;7.768;2022-09-29T07:42:35;9.10;70.10
5868;DHT22;2960;49.142;7.768;2022-09-29T07:45:02;9.20;70.20
5868;DHT22;2960;49.142;7.768;2022-09-29T07:47:30;9.20;70.20
5868;DHT22;2960;49.142;7.768;2022-09-29T07:49:57;9.30;70.30
5868;DHT22;2960;49.142;7.768;2022-09-29T07:52:24;9.30;70.30
5868;DHT22;2960;49.142;7.768;2022-09-29T07:54:51;9.30;70.30
5868;DHT22;2960;49.142;7.768;2022-09-29T07:57:18;9.40;70.50
5868;DHT22;2960;49.142;7.768;2022-09-29T07:59:46;9.40;70.50
5868;DHT22;2960;49.142;7.768;2022-09-29T08:02:13;9.40;71.20
5868;DHT22;2960;49.142;7.768;2022-09-29T08:04:41;9.50;70.60
5868;DHT22;2960;49.142;7.768;2022-09-29T08:07:09;9.50;70.60
5868;DHT22;2960;49.142;7.768;2022-09-29T08:09:36;9.60;70.70
5868;DHT22;2960;49.142;7.768;2022-09-29T08:12:03;9.60;70.60
5868;DHT22;2960;49.142;7.768;2022-09-29T08:14:30;9.70;70.80
5868;DHT22;2960;49.142;7.768;2022-09-29T08:16:59;9.80;70.90
5868;DHT22;2960;49.142;7.768;2022-09-29T08:19:26;9.80;70.90
5868;DHT22;2960;49.142;7.768;2022-09-29T08:21:53;9.90;70.90
5868;DHT22;2960;49.142;7.768;2022-09-29T08:24:20;10.00;69.80
5868;DHT22;2960;49.142;7.768;2022-09-29T08:26:48;10.20;69.90
5868;DHT22;2960;49.142;7.768;2022-09-29T08:29:15;10.20;69.80
5868;DHT22;2960;49.142;7.768;2022-09-29T08:31:42;10.30;69.80
5868;DHT22;2960;49.142;7.768;2022-09-29T08:34:10;10.40;70.60
5868;DHT22;2960;49.142;7.768;2022-09-29T08:36:39;10.50;69.90
5868;DHT22;2960;49.142;7.768;2022-09-29T08:39:06;10.60;69.90
5868;DHT22;2960;49.142;7.768;2022-09-29T08:41:45;10.70;69.90
5868;DHT22;2960;49.142;7.768;2022-09-29T08:44:20;10.80;70.00
5868;DHT22;2960;49.142;7.768;2022-09-29T08:46:55;10.80;70.00
5868;DHT22;2960;49.142;7.768;2022-09-29T08:49:30;10.90;70.00
5868;DHT22;2960;49.142;7.768;2022-09-29T08:52:04;10.90;70.00
5868;DHT22;2960;49.142;7.768;2022-09-29T08:54:37;11.00;70.10
5868;DHT22;2960;49.142;7.768;2022-09-29T08:57:06;11.10;70.20
5868;DHT22;2960;49.142;7.768;2022-09-29T08:59:36;11.30;70.60
5868;DHT22;2960;49.142;7.768;2022-09-29T09:02:18;11.40;70.80
5868;DHT22;2960;49.142;7.768;2022-09-29T09:05:25;11.60;71.00
5868;DHT22;2960;49.142;7.768;2022-09-29T09:08:16;11.90;71.30
5868;DHT22;2960;49.142;7.768;2022-09-29T09:10:54;12.20;71.40
5868;DHT22;2960;49.142;7.768;2022-09-29T09:13:41;12.50;71.20
5868;DHT22;2960;49.142;7.768;2022-09-29T09:16:25;12.80;71.00
5868;DHT22;2960;49.142;7.768;2022-09-29T09:19:28;13.00;70.70
5868;DHT22;2960;49.142;7.768;2022-09-29T09:22:19;13.20;70.60
5868;DHT22;2960;49.142;7.768;2022-09-29T09:24:51;13.40;71.40
5868;DHT22;2960;49.142;7.768;2022-09-29T09:27:25;13.50;71.30
5868;DHT22;2960;49.142;7.768;2022-09-29T09:30:01;13.70;70.30
5868;DHT22;2960;49.142;7.768;2022-09-29T09:32:35;13.90;70.10
5868;DHT22;2960;49.142;7.768;2022-09-29T09:35:26;14.00;70.40
5868;DHT22;2960;49.142;7.768;2022-09-29T09:38:02;14.30;71.00
5868;DHT22;2960;49.142;7.768;2022-09-29T09:40:39;14.80;71.50
5868;DHT22;2960;49.142;7.768;2022-09-29T09:43:12;15.30;71.40
5868;DHT22;2960;49.142;7.768;2022-09-29T09:45:48;15.80;70.90
5868;DHT22;2960;49.142;7.768;2022-09-29T09:48:23;16.40;70.40
5868;DHT22;2960;49.142;7.768;2022-09-29T09:50:53;16.90;69.40
5868;DHT22;2960;49.142;7.768;2022-09-29T09:53:27;17.30;68.10
5868;DHT22;2960;49.142;7.768;2022-09-29T09:56:06;17.70;67.20
5868;DHT22;2960;49.142;7.768;2022-09-29T09:59:06;18.00;66.70
5868;DHT22;2960;49.142;7.768;2022-09-29T10:01:40;18.40;66.30
5868;DHT22;2960;49.142;7.768;2022-09-29T10:04:11;18.80;65.70
5868;DHT22;2960;49.142;7.768;2022-09-29T10:06:38;19.20;65.30
5868;DHT22;2960;49.142;7.768;2022-09-29T10:09:10;19.60;64.60
5868;DHT22;2960;49.142;7.768;2022-09-29T10:11:41;20.00;63.90
5868;DHT22;2960;49.142;7.768;2022-09-29T10:14:13;20.30;63.00
5868;DHT22;2960;49.142;7.768;2022-09-29T10:16:45;20.50;62.10
5868;DHT22;2960;49.142;7.768;2022-09-29T10:19:19;20.50;61.60
5868;DHT22;2960;49.142;7.768;2022-09-29T10:21:47;20.60;62.40
5868;DHT22;2960;49.142;7.768;2022-09-29T10:24:27;20.70;60.70
5868;DHT22;2960;49.142;7.768;2022-09-29T10:26:57;20.70;59.80
5868;DHT22;2960;49.142;7.768;2022-09-29T10:29:30;20.60;59.30
5868;DHT22;2960;49.142;7.768;2022-09-29T10:32:03;20.40;59.00
5868;DHT22;2960;49.142;7.768;2022-09-29T10:34:32;20.20;59.00
5868;DHT22;2960;49.142;7.768;2022-09-29T10:37:01;20.00;58.80
5868;DHT22;2960;49.142;7.768;2022-09-29T10:39:37;19.90;58.70
5868;DHT22;2960;49.142;7.768;2022-09-29T10:42:16;19.70;58.50
5868;DHT22;2960;49.142;7.768;2022-09-29T10:44:50;19.60;58.40
5868;DHT22;2960;49.142;7.768;2022-09-29T10:47:20;19.40;58.40
5868;DHT22;2960;49.142;7.768;2022-09-29T10:50:06;19.50;58.70
5868;DHT22;2960;49.142;7.768;2022-09-29T10:52:41;19.60;58.60
5868;DHT22;2960;49.142;7.768;2022-09-29T10:55:17;19.80;58.20
5868;DHT22;2960;49.142;7.768;2022-09-29T10:57:46;20.00;58.00
5868;DHT22;2960;49.142;7.768;2022-09-29T11:00:28;20.10;57.70
5868;DHT22;2960;49.142;7.768;2022-09-29T11:03:03;20.30;57.60
5868;DHT22;2960;49.142;7.768;2022-09-29T11:05:33;20.40;57.30
5868;DHT22;2960;49.142;7.768;2022-09-29T11:08:01;20.40;57.00
5868;DHT22;2960;49.142;7.768;2022-09-29T11:10:32;20.30;56.70
5868;DHT22;2960;49.142;7.768;2022-09-29T11:13:36;20.20;56.40
5868;DHT22;2960;49.142;7.768;2022-09-29T11:16:13;20.00;56.40
5868;DHT22;2960;49.142;7.768;2022-09-29T11:18:42;19.80;56.40
5868;DHT22;2960;49.142;7.768;2022-09-29T11:24:46;19.40;56.60
5868;DHT22;2960;49.142;7.768;2022-09-29T11:27:32;19.30;56.70
5868;DHT22;2960;49.142;7.768;2022-09-29T11:30:09;19.20;56.80
5868;DHT22;2960;49.142;7.768;2022-09-29T11:32:47;19.00;56.60
5868;DHT22;2960;49.142;7.768;2022-09-29T11:35:44;18.90;56.60
5868;DHT22;2960;49.142;7.768;2022-09-29T11:38:45;18.80;56.40
5868;DHT22;2960;49.142;7.768;2022-09-29T11:41:31;18.70;56.50
5868;DHT22;2960;49.142;7.768;2022-09-29T11:47:21;18.30;56.20
5868;DHT22;2960;49.142;7.768;2022-09-29T11:50:08;18.20;56.30
5868;DHT22;2960;49.142;7.768;2022-09-29T11:53:12;18.00;56.30
5868;DHT22;2960;49.142;7.768;2022-09-29T11:55:56;17.90;56.30
5868;DHT22;2960;49.142;7.768;2022-09-29T11:58:45;17.80;56.40
5868;DHT22;2960;49.142;7.768;2022-09-29T12:01:28;17.80;56.50
5868;DHT22;2960;49.142;7.768;2022-09-29T12:04:21;17.70;56.50
5868;DHT22;2960;49.142;7.768;2022-09-29T12:06:54;17.70;56.50
5868;DHT22;2960;49.142;7.768;2022-09-29T12:09:58;17.80;56.50
5868;DHT22;2960;49.142;7.768;2022-09-29T12:12:48;17.80;56.50
5868;DHT22;2960;49.142;7.768;2022-09-29T12:15:27;17.70;56.30
5868;DHT22;2960;49.142;7.768;2022-09-29T12:18:02;17.80;56.90
5868;DHT22;2960;49.142;7.768;2022-09-29T12:20:36;17.70;56.10
5868;DHT22;2960;49.142;7.768;2022-09-29T12:23:10;17.70;56.70
5868;DHT22;2960;49.142;7.768;2022-09-29T12:25:45;17.70;56.00
5868;DHT22;2960;49.142;7.768;2022-09-29T12:28:21;17.60;56.00
5868;DHT22;2960;49.142;7.768;2022-09-29T12:30:54;17.60;56.00
5868;DHT22;2960;49.142;7.768;2022-09-29T12:33:30;17.50;56.00
5868;DHT22;2960;49.142;7.768;2022-09-29T12:36:11;17.50;56.10
5868;DHT22;2960;49.142;7.768;2022-09-29T12:39:04;17.40;56.10
5868;DHT22;2960;49.142;7.768;2022-09-29T12:41:40;17.40;56.20
5868;DHT22;2960;49.142;7.768;2022-09-29T12:44:15;17.40;56.20
5868;DHT22;2960;49.142;7.768;2022-09-29T12:46:47;17.30;56.10
5868;DHT22;2960;49.142;7.768;2022-09-29T12:49:22;17.30;56.10
5868;DHT22;2960;49.142;7.768;2022-09-29T12:51:53;17.20;56.00
5868;DHT22;2960;49.142;7.768;2022-09-29T12:54:27;17.20;56.70
5868;DHT22;2960;49.142;7.768;2022-09-29T12:57:03;17.10;56.00
5868;DHT22;2960;49.142;7.768;2022-09-29T12:59:35;17.10;56.10
5868;DHT22;2960;49.142;7.768;2022-09-29T13:02:22;17.10;56.20
5868;DHT22;2960;49.142;7.768;2022-09-29T13:05:31;17.00;56.10
5868;DHT22;2960;49.142;7.768;2022-09-29T13:11:53;16.90;56.20
5868;DHT22;2960;49.142;7.768;2022-09-29T13:14:51;16.80;56.80
5868;DHT22;2960;49.142;7.768;2022-09-29T13:17:51;16.80;56.20
5868;DHT22;2960;49.142;7.768;2022-09-29T13:20:41;16.70;56.30
5868;DHT22;2960;49.142;7.768;2022-09-29T13:26:41;16.70;56.50
5868;DHT22;2960;49.142;7.768;2022-09-29T13:29:17;16.60;56.50
5868;DHT22;2960;49.142;7.768;2022-09-29T13:31:47;16.60;56.60
5868;DHT22;2960;49.142;7.768;2022-09-29T13:34:24;16.50;56.70
5868;DHT22;2960;49.142;7.768;2022-09-29T13:37:04;16.50;57.10
5868;DHT22;2960;49.142;7.768;2022-09-29T13:39:34;16.40;57.50
5868;DHT22;2960;49.142;7.768;2022-09-29T13:48:36;16.20;58.70
5868;DHT22;2960;49.142;7.768;2022-09-29T13:51:43;16.10;59.00
5868;DHT22;2960;49.142;7.768;2022-09-29T13:54:27;16.00;59.10
5868;DHT22;2960;49.142;7.768;2022-09-29T14:03:16;15.80;59.70
5868;DHT22;2960;49.142;7.768;2022-09-29T14:06:01;15.70;59.90
5868;DHT22;2960;49.142;7.768;2022-09-29T14:08:36;15.60;60.10
5868;DHT22;2960;49.142;7.768;2022-09-29T14:11:19;15.40;60.20
5868;DHT22;2960;49.142;7.768;2022-09-29T14:13:54;15.30;60.50
5868;DHT22;2960;49.142;7.768;2022-09-29T14:16:38;15.20;60.80
5868;DHT22;2960;49.142;7.768;2022-09-29T14:19:29;15.00;60.70
5868;DHT22;2960;49.142;7.768;2022-09-29T14:22:02;14.90;61.00
5868;DHT22;2960;49.142;7.768;2022-09-29T14:24:45;14.70;61.30
5868;DHT22;2960;49.142;7.768;2022-09-29T14:27:30;14.60;61.50
5868;DHT22;2960;49.142;7.768;2022-09-29T14:30:13;14.60;61.80
5868;DHT22;2960;49.142;7.768;2022-09-29T14:32:46;14.50;61.80
5868;DHT22;2960;49.142;7.768;2022-09-29T14:35:23;14.50;61.90
5868;DHT22;2960;49.142;7.768;2022-09-29T14:38:03;14.50;62.00
5868;DHT22;2960;49.142;7.768;2022-09-29T14:40:32;14.50;62.80
5868;DHT22;2960;49.142;7.768;2022-09-29T14:43:11;14.50;62.10
5868;DHT22;2960;49.142;7.768;2022-09-29T14:46:00;14.40;62.00
5868;DHT22;2960;49.142;7.768;2022-09-29T14:49:02;14.40;62.10
5868;DHT22;2960;49.142;7.768;2022-09-29T14:52:09;14.30;62.50
5868;DHT22;2960;49.142;7.768;2022-09-29T14:54:45;14.10;63.00
5868;DHT22;2960;49.142;7.768;2022-09-29T14:57:34;14.10;63.60
5868;DHT22;2960;49.142;7.768;2022-09-29T15:00:15;14.10;63.70
5868;DHT22;2960;49.142;7.768;2022-09-29T15:02:46;14.00;63.80
5868;DHT22;2960;49.142;7.768;2022-09-29T15:05:25;13.90;63.80
5868;DHT22;2960;49.142;7.768;2022-09-29T15:07:54;13.90;64.10
5868;DHT22;2960;49.142;7.768;2022-09-29T15:10:25;13.90;64.30
5868;DHT22;2960;49.142;7.768;2022-09-29T15:13:15;13.80;64.30
5868;DHT22;2960;49.142;7.768;2022-09-29T15:15:46;13.80;64.30
5868;DHT22;2960;49.142;7.768;2022-09-29T15:18:30;13.80;64.40
5868;DHT22;2960;49.142;7.768;2022-09-29T15:21:09;13.80;64.50
5868;DHT22;2960;49.142;7.768;2022-09-29T15:24:01;13.80;64.60
5868;DHT22;2960;49.142;7.768;2022-09-29T15:26:45;13.80;64.60
5868;DHT22;2960;49.142;7.768;2022-09-29T15:29:15;13.70;64.70
5868;DHT22;2960;49.142;7.768;2022-09-29T15:31:45;13.80;64.80
5868;DHT22;2960;49.142;7.768;2022-09-29T15:34:18;13.70;64.90
5868;DHT22;2960;49.142;7.768;2022-09-29T15:36:49;13.70;64.90
5868;DHT22;2960;49.142;7.768;2022-09-29T15:39:42;13.70;65.00
5868;DHT22;2960;49.142;7.768;2022-09-29T15:42:15;13.70;65.10
5868;DHT22;2960;49.142;7.768;2022-09-29T15:44:49;13.70;65.20
5868;DHT22;2960;49.142;7.768;2022-09-29T15:47:21;13.70;65.30
5868;DHT22;2960;49.142;7.768;2022-09-29T15:49:53;13.70;65.40
5868;DHT22;2960;49.142;7.768;2022-09-29T15:52:20;13.70;65.50
5868;DHT22;2960;49.142;7.768;2022-09-29T15:54:54;13.70;65.70
5868;DHT22;2960;49.142;7.768;2022-09-29T16:00:43;13.70;66.00
5868;DHT22;2960;49.142;7.768;2022-09-29T16:03:15;13.60;66.00
5868;DHT22;2960;49.142;7.768;2022-09-29T16:05:56;13.60;66.20
5868;DHT22;2960;49.142;7.768;2022-09-29T16:08:30;13.60;66.30
5868;DHT22;2960;49.142;7.768;2022-09-29T16:11:00;13.60;66.30
5868;DHT22;2960;49.142;7.768;2022-09-29T16:13:31;13.60;66.40
5868;DHT22;2960;49.142;7.768;2022-09-29T16:16:03;13.60;66.40
5868;DHT22;2960;49.142;7.768;2022-09-29T16:18:37;13.60;66.60
5868;DHT22;2960;49.142;7.768;2022-09-29T16:21:08;13.60;66.70
5868;DHT22;2960;49.142;7.768;2022-09-29T16:23:41;13.50;66.60
5868;DHT22;2960;49.142;7.768;2022-09-29T16:26:14;13.50;66.70
5868;DHT22;2960;49.142;7.768;2022-09-29T16:29:11;13.60;66.90
5868;DHT22;2960;49.142;7.768;2022-09-29T16:31:51;13.50;66.80
5868;DHT22;2960;49.142;7.768;2022-09-29T16:34:28;13.50;67.70
5868;DHT22;2960;49.142;7.768;2022-09-29T16:36:58;13.50;67.60
5868;DHT22;2960;49.142;7.768;2022-09-29T16:39:28;13.50;67.00
5868;DHT22;2960;49.142;7.768;2022-09-29T16:41:59;13.50;67.10
5868;DHT22;2960;49.142;7.768;2022-09-29T16:44:30;13.50;67.90
5868;DHT22;2960;49.142;7.768;2022-09-29T16:47:10;13.50;67.20
5868;DHT22;2960;49.142;7.768;2022-09-29T16:49:45;13.50;67.30
5868;DHT22;2960;49.142;7.768;2022-09-29T16:52:16;13.50;67.30
5868;DHT22;2960;49.142;7.768;2022-09-29T16:54:46;13.40;67.30
5868;DHT22;2960;49.142;7.768;2022-09-29T16:57:24;13.40;67.40
5868;DHT22;2960;49.142;7.768;2022-09-29T16:59:53;13.40;67.50
5868;DHT22;2960;49.142;7.768;2022-09-29T17:02:23;13.40;67.60
5868;DHT22;2960;49.142;7.768;2022-09-29T17:04:52;13.30;67.60
5868;DHT22;2960;49.142;7.768;2022-09-29T17:07:21;13.30;67.70
5868;DHT22;2960;49.142;7.768;2022-09-29T17:09:51;13.30;67.80
5868;DHT22;2960;49.142;7.768;2022-09-29T17:12:21;13.30;67.80
5868;DHT22;2960;49.142;7.768;2022-09-29T17:14:48;13.30;67.90
5868;DHT22;2960;49.142;7.768;2022-09-29T17:17:17;13.30;67.90
5868;DHT22;2960;49.142;7.768;2022-09-29T17:19:48;13.20;67.90
5868;DHT22;2960;49.142;7.768;2022-09-29T17:22:23;13.20;68.30
5868;DHT22;2960;49.142;7.768;2022-09-29T17:24:53;13.30;68.20
5868;DHT22;2960;49.142;7.768;2022-09-29T17:27:20;13.20;68.80
5868;DHT22;2960;49.142;7.768;2022-09-29T17:30:07;13.20;68.10